Flight Track Log - Related Links

Times and Time Zones

All times are in EDT time to prevent confusion due to time zone crossing. See the JBU1337 flight status page for this flight to view local times or setup timezone preferences in your user account.

Time Position Orientation Groundspeed Altitude Reporting Facility
EDT Latitude Longitude Course Direction KTS MPH feet Rate Location/Type
Wed 12:13:07 AM 40.6667 -73.7500 128° Southeast 168 193 1,500  Level New York TRACON
Wed 12:14:01 AM 40.6500 -73.7000 114° Southeast 223 257 2,400 2,243 Climbing New York TRACON
Wed 12:16:00 AM 40.3592 -73.2970 131° Southeast  Level FlightAware Approximate
Wed 12:16:33 AM 40.5194 -73.5175 133° Southeast 282 325 9,200  Level New York Center
Wed 12:17:00 AM 40.2798 -73.1716 128° Southeast  Level FlightAware Approximate
Wed 12:17:31 AM 40.4647 -73.4417 133° Southeast 301 346 10,800  Level New York Center
Wed 12:18:00 AM 40.2031 -73.0434 128° Southeast  Level FlightAware Approximate
Wed 12:18:30 AM 40.3900 -73.3353 133° Southeast 342 394 12,300  Level New York Center
Wed 12:19:30 AM 40.3214 -73.2375 133° Southeast 384 442 14,200 1,884 Climbing New York Center
Wed 12:20:31 AM 40.2592 -73.1292 127° Southeast 409 471 16,100 1,884 Climbing New York Center
Wed 12:21:31 AM 40.1550 -73.0169 141° Southeast 407 468 18,000 1,916 Climbing New York Center
Wed 12:22:30 AM 40.0428 -72.9942 171° South 393 452 19,900 1,714 Climbing New York Center
Wed 12:23:30 AM 39.9267 -72.9717 172° South 402 463 21,400 1,850 Climbing New York Center
Wed 12:24:30 AM 39.8122 -72.9517 172° South 415 478 23,600 1,785 Climbing New York Center
Wed 12:25:31 AM 39.6981 -72.9292 171° South 415 478 25,000 1,300 Climbing New York Center
Wed 12:26:30 AM 39.5817 -72.9094 173° South 421 484 26,200 1,160 Climbing New York Center
Wed 12:27:30 AM 39.4656 -72.8844 171° South 426 490 27,300 1,050 Climbing New York Center
Wed 12:28:30 AM 39.3428 -72.8619 172° South 432 497 28,300 1,050 Climbing New York Center
Wed 12:29:30 AM 39.2181 -72.8394 172° South 442 509 29,400 1,050 Climbing New York Center
Wed 12:30:30 AM 39.0933 -72.8197 173° South 449 517 30,400 1,140 Climbing New York Center
Wed 12:31:31 AM 38.9644 -72.7947 171° South 461 531 31,700 1,000 Climbing New York Center
Wed 12:32:30 AM 38.8397 -72.7725 172° South 461 531 32,400 807 Climbing New York Center
Wed 12:33:30 AM 38.7131 -72.7475 171° South 461 531 33,300 800 Climbing New York Center
Wed 12:34:30 AM 38.5842 -72.7228 171° South 473 544 34,000 545 Climbing New York Center
Wed 12:35:31 AM 38.4533 -72.6978 171° South 473 544 34,400 400 Climbing New York Center
Wed 12:36:30 AM 38.3200 -72.6783 173° South 473 544 34,800 303 Climbing New York Center
Wed 12:37:30 AM 38.1828 -72.6564 173° South 488 562 35,000 100 Climbing New York Center
Wed 12:38:30 AM 38.0433 -72.6342 173° South 496 571 35,000  Level New York Center
Wed 12:39:30 AM 37.9061 -72.6069 171° South 502 578 35,000  Level New York Center
Wed 12:40:32 AM 37.7689 -72.5772 170° South 502 578 35,000  Level New York Center
Wed 12:41:30 AM 37.6317 -72.5503 171° South 502 578 35,000  Level New York Center
Wed 12:42:30 AM 37.5131 -72.5289 172° South 495 570 35,000  Level New York Center
Wed 12:43:30 AM 37.3653 -72.5044 173° South 510 587 35,000  Level New York Center
Wed 12:44:30 AM 37.2219 -72.4778 172° South 510 587 35,000  Level New York Center
Wed 12:45:31 AM 37.0867 -72.4536 172° South 503 579 35,000  Level New York Center
Wed 12:46:30 AM 36.9472 -72.4272 171° South 503 579 35,000 -50 Level New York Center
Wed 12:47:30 AM 36.8100 -72.4033 172° South 504 580 34,900  Descending New York Center
Wed 12:48:30 AM 36.6764 -72.3978 178° South 498 573 35,000 50 Climbing New York Center
Wed 12:49:30 AM 36.5408 -72.3975 180° South 493 567 35,000  Level New York Center
Wed 12:50:30 AM 36.3947 -72.3994 181° South 500 575 35,000  Level New York Center
Wed 12:51:30 AM 36.2611 -72.4017 181° South 495 570 35,000  Level New York Center
Wed 12:52:30 AM 36.1256 -72.4014 180° South 495 570 35,000  Level New York Center
Wed 12:53:31 AM 35.9817 -72.4058 181° South 500 575 35,000  Level New York Center
Wed 12:54:33 AM 35.8503 -72.4031 179° South 490 564 35,000  Level New York Center
Wed 12:55:30 AM 35.7144 -72.4053 181° South 490 564 35,000  Level New York Center
Wed 12:56:30 AM 35.5769 -72.4075 181° South 496 571 35,000  Level New York Center
Wed 12:57:33 AM 35.4411 -72.4147 182° South 496 571 35,000  Level New York Center
Wed 12:58:30 AM 35.3094 -72.4247 184° South 496 571 35,000  Level New York Center
Wed 01:00:00 AM 35.1226 -72.4080 176° South  Level FlightAware Approximate
Wed 01:02:17 AM 35.0500 -72.4167 175° South 478 550 35,000  Level New York Oceanic (ODAPS)
Wed 01:07:00 AM 34.2504 -72.3251 176° South  Level FlightAware Approximate
Wed 01:08:00 AM 33.9833 -72.3000 167° South 478 550 35,000  Level FlightAware Transoceanic
Wed 01:09:00 AM 33.8564 -72.2653 167° South 478 550 35,000  Level FlightAware Transoceanic
Wed 01:10:00 AM 33.7295 -72.2306 167° South 478 550 35,000  Level FlightAware Transoceanic
Wed 01:10:18 AM 33.9833 -72.3000 167° South 467 537 35,000  Level New York Oceanic (ODAPS)
Wed 01:11:00 AM 33.6026 -72.1961 167° South 478 550 35,000  Level FlightAware Transoceanic
Wed 01:12:00 AM 33.4756 -72.1616 167° South 478 550 35,000  Level FlightAware Transoceanic
Wed 01:13:00 AM 33.3487 -72.1273 167° South 478 550 35,000  Level FlightAware Transoceanic
Wed 01:14:00 AM 33.2217 -72.0930 167° South 478 550 35,000  Level FlightAware Transoceanic
Wed 01:15:00 AM 33.0947 -72.0589 167° South 478 550 35,000  Level FlightAware Transoceanic
Wed 01:16:00 AM 32.9678 -72.0249 167° South 467 537 35,000  Level FlightAware Transoceanic
Wed 01:17:00 AM 32.8408 -71.9909 167° South 467 537 35,000  Level FlightAware Transoceanic
Wed 01:18:00 AM 32.7138 -71.9571 167° South 467 537 35,000  Level FlightAware Transoceanic
Wed 01:19:00 AM 32.5868 -71.9233 167° South 467 537 35,000  Level FlightAware Transoceanic
Wed 01:20:00 AM 32.4598 -71.8897 167° South 467 537 35,000  Level FlightAware Transoceanic
Wed 01:21:00 AM 32.3327 -71.8561 167° South 467 537 35,000  Level FlightAware Transoceanic
Wed 01:22:00 AM 32.2057 -71.8227 167° South 467 537 35,000  Level FlightAware Transoceanic
Wed 01:23:00 AM 32.0787 -71.7893 167° South 467 537 35,000  Level FlightAware Transoceanic
Wed 01:24:00 AM 31.9516 -71.7560 167° South 467 537 35,000  Level FlightAware Transoceanic
Wed 01:25:00 AM 31.8246 -71.7228 168° South 467 537 35,000  Level FlightAware Transoceanic
Wed 01:26:00 AM 31.6975 -71.6897 168° South 467 537 35,000  Level FlightAware Transoceanic
Wed 01:27:00 AM 31.5704 -71.6567 168° South 467 537 35,000  Level FlightAware Transoceanic
Wed 01:28:00 AM 31.4433 -71.6238 168° South 467 537 35,000  Level FlightAware Transoceanic
Wed 01:29:00 AM 31.3163 -71.5910 168° South 467 537 35,000  Level FlightAware Transoceanic
Wed 01:30:00 AM 31.1892 -71.5582 168° South 467 537 35,000  Level FlightAware Transoceanic
Wed 01:31:00 AM 31.0620 -71.5256 168° South 467 537 35,000  Level FlightAware Transoceanic
Wed 01:32:00 AM 30.9349 -71.4930 168° South 467 537 35,000  Level FlightAware Transoceanic
Wed 01:33:00 AM 30.8078 -71.4605 168° South 467 537 35,000  Level FlightAware Transoceanic
Wed 01:34:00 AM 30.6807 -71.4281 168° South 467 537 35,000  Level FlightAware Transoceanic
Wed 01:35:00 AM 30.5535 -71.3959 168° South 467 537 35,000  Level FlightAware Transoceanic
Wed 01:36:00 AM 30.4264 -71.3636 168° South 467 537 35,000  Level FlightAware Transoceanic
Wed 01:37:00 AM 30.2992 -71.3315 168° South 467 537 35,000  Level FlightAware Transoceanic
Wed 01:38:00 AM 30.1721 -71.2994 168° South 467 537 35,000  Level FlightAware Transoceanic
Wed 01:39:00 AM 30.0449 -71.2675 168° South 467 537 35,000  Level FlightAware Transoceanic
Wed 01:40:00 AM 29.9177 -71.2356 168° South 467 537 35,000  Level FlightAware Transoceanic
Wed 01:41:00 AM 29.7905 -71.2038 168° South 467 537 35,000  Level FlightAware Transoceanic
Wed 01:42:00 AM 29.6633 -71.1720 168° South 467 537 35,000  Level FlightAware Transoceanic
Wed 01:43:00 AM 29.5361 -71.1404 168° South 467 537 35,000  Level FlightAware Transoceanic
Wed 01:44:00 AM 29.4089 -71.1088 168° South 467 537 35,000  Level FlightAware Transoceanic
Wed 01:45:00 AM 29.2817 -71.0773 168° South 467 537 35,000  Level FlightAware Transoceanic
Wed 01:46:00 AM 29.1545 -71.0459 168° South 467 537 35,000  Level FlightAware Transoceanic
Wed 01:47:00 AM 29.0272 -71.0146 168° South 467 537 35,000  Level FlightAware Transoceanic
Wed 01:48:00 AM 28.9000 -70.9833 168° South 467 537 35,000  Level FlightAware Transoceanic
Wed 01:49:00 AM 28.7819 -70.9541 168° South 467 537 35,000  Level FlightAware Transoceanic
Wed 01:50:00 AM 28.6638 -70.9249 168° South 467 537 35,000  Level FlightAware Transoceanic
Wed 01:50:02 AM 28.9000 -70.9833 168° South 447 514 35,000  Level New York Oceanic (ODAPS)
Wed 01:51:00 AM 28.5457 -70.8957 168° South 467 537 35,000  Level FlightAware Transoceanic
Wed 01:52:00 AM 28.4276 -70.8667 168° South 467 537 35,000  Level FlightAware Transoceanic
Wed 01:53:00 AM 28.3095 -70.8376 168° South 467 537 35,000  Level FlightAware Transoceanic
Wed 01:54:00 AM 28.1914 -70.8087 168° South 467 537 35,000  Level FlightAware Transoceanic
Wed 01:55:00 AM 28.0732 -70.7798 168° South 467 537 35,000  Level FlightAware Transoceanic
Wed 01:56:00 AM 27.9256 -70.7438 168° South 447 514 35,000  Level FlightAware Transoceanic
Wed 01:57:00 AM 27.8038 -70.7142 168° South 447 514 35,000  Level FlightAware Transoceanic
Wed 01:58:00 AM 27.6819 -70.6846 168° South 447 514 35,000  Level FlightAware Transoceanic
Wed 01:59:00 AM 27.5601 -70.6551 168° South 447 514 35,000  Level FlightAware Transoceanic
Wed 02:00:00 AM 27.4382 -70.6257 168° South 447 514 35,000  Level FlightAware Transoceanic
Wed 02:01:00 AM 27.3164 -70.5963 168° South 447 514 35,000  Level FlightAware Transoceanic
Wed 02:02:00 AM 27.1945 -70.5670 168° South 447 514 35,000  Level FlightAware Transoceanic
Wed 02:03:00 AM 27.0726 -70.5378 168° South 447 514 35,000  Level FlightAware Transoceanic
Wed 02:04:00 AM 26.9508 -70.5086 168° South 447 514 35,000  Level FlightAware Transoceanic
Wed 02:05:00 AM 26.8289 -70.4795 168° South 447 514 35,000  Level FlightAware Transoceanic
Wed 02:06:00 AM 26.7070 -70.4504 168° South 447 514 35,000  Level FlightAware Transoceanic
Wed 02:07:00 AM 26.5851 -70.4214 168° South 447 514 35,000  Level FlightAware Transoceanic
Wed 02:08:00 AM 26.4632 -70.3925 168° South 447 514 35,000  Level FlightAware Transoceanic
Wed 02:09:00 AM 26.3413 -70.3636 168° South 447 514 35,000  Level FlightAware Transoceanic
Wed 02:10:00 AM 26.2194 -70.3348 168° South 447 514 35,000  Level FlightAware Transoceanic
Wed 02:11:00 AM 26.0975 -70.3061 168° South 447 514 35,000  Level FlightAware Transoceanic
Wed 02:12:00 AM 25.9756 -70.2774 168° South 447 514 35,000  Level FlightAware Transoceanic
Wed 02:13:00 AM 25.8536 -70.2488 168° South 447 514 35,000  Level FlightAware Transoceanic
Wed 02:14:00 AM 25.7317 -70.2202 168° South 447 514 35,000  Level FlightAware Transoceanic
Wed 02:15:00 AM 25.6098 -70.1917 168° South 447 514 35,000  Level FlightAware Transoceanic
Wed 02:16:00 AM 25.4878 -70.1632 168° South 447 514 35,000  Level FlightAware Transoceanic
Wed 02:17:00 AM 25.3659 -70.1348 168° South 447 514 35,000  Level FlightAware Transoceanic
Wed 02:17:41 AM 25.4153 -70.1689 185° South 449 517 35,000  Level Miami Center
Wed 02:18:00 AM 25.2439 -70.1065 168° South 447 514 35,000  Level FlightAware Transoceanic
Wed 02:18:41 AM 25.2931 -70.1411 168° South 454 522 35,000  Level Miami Center
Wed 02:19:00 AM 25.1220 -70.0782 168° South 447 514 35,000  Level FlightAware Transoceanic
Wed 02:19:42 AM 25.1750 -70.1133 168° South 443 510 35,000  Level Miami Center
Wed 02:20:00 AM 25.0000 -70.0500 185° South 447 514 35,000  Level FlightAware Transoceanic
Wed 02:20:43 AM 25.0569 -70.0878 169° South 437 503 35,000  Level Miami Center
Wed 02:21:00 AM 24.8862 -70.0617 185° South 447 514 35,000  Level FlightAware Transoceanic
Wed 02:21:43 AM 24.9369 -70.0669 171° South 431 496 35,000  Level Miami Center
Wed 02:22:00 AM 24.7725 -70.0733 185° South 447 514 35,000  Level FlightAware Transoceanic
Wed 02:22:43 AM 24.8200 -70.0667 180° South 431 496 35,000  Level Miami Center
Wed 02:23:00 AM 24.6588 -70.0849 185° South 447 514 35,000  Level FlightAware Transoceanic
Wed 02:23:42 AM 24.6983 -70.0528 174° South 431 496 35,000  Level Miami Center
Wed 02:24:42 AM 24.5814 -70.0478 178° South 426 490 35,000  Level Miami Center
Wed 02:25:41 AM 24.4642 -70.0383 176° South 426 490 35,000  Level Miami Center
Wed 02:26:43 AM 24.3469 -70.0333 178° South 421 484 35,000  Level Miami Center
Wed 02:27:44 AM 24.2294 -70.0192 174° South 426 490 35,000  Level Miami Center
Wed 02:28:43 AM 24.1125 -70.0119 177° South 426 490 35,000  Level Miami Center
Wed 02:29:41 AM 23.9953 -70.0069 178° South 426 490 35,000  Level Miami Center
Wed 02:30:41 AM 23.8778 -69.9931 174° South 426 490 35,000  Level Miami Center
Wed 02:31:41 AM 23.7608 -69.9903 179° South 426 490 35,000  Level Miami Center
Wed 02:32:44 AM 23.6369 -69.9744 173° South 426 490 35,000  Level Miami Center
Wed 02:33:43 AM 23.5156 -69.9650 176° South 433 498 35,000  Level Miami Center
Wed 02:34:42 AM 23.3942 -69.9558 176° South 438 504 35,000  Level Miami Center
Wed 02:35:42 AM 23.2728 -69.9444 175° South 444 511 35,000  Level Miami Center
Wed 02:36:42 AM 23.1514 -69.9375 177° South 444 511 35,000  Level Miami Center
Wed 02:37:42 AM 23.0319 -69.9281 176° South 444 511 35,000  Level Miami Center
Wed 02:38:43 AM 22.9108 -69.9211 177° South 444 511 35,000  Level Miami Center
Wed 02:39:44 AM 22.7906 -69.9386 188° South 439 505 35,000  Level Miami Center
Wed 02:40:43 AM 22.6806 -69.9917 204° Southwest 439 505 35,000  Level Miami Center
Wed 02:41:41 AM 22.5836 -70.0664 215° Southwest 422 486 35,000  Level Miami Center
Wed 02:42:41 AM 22.4872 -70.1478 218° Southwest 427 491 35,000  Level Miami Center
Wed 02:43:41 AM 22.3992 -70.2353 223° Southwest 433 498 35,000  Level Miami Center
Wed 02:44:43 AM 22.3072 -70.3228 221° Southwest 438 504 35,000  Level Miami Center
Wed 02:45:41 AM 22.2192 -70.4100 223° Southwest 443 510 35,000  Level Miami Center
Wed 02:46:41 AM 22.1292 -70.4997 223° Southwest 443 510 35,000  Level Miami Center
Wed 02:47:41 AM 22.0408 -70.5844 222° Southwest 443 510 35,000  Level Miami Center
Wed 02:48:43 AM 21.9547 -70.6733 224° Southwest 443 510 35,000  Level Miami Center
Wed 02:49:42 AM 21.8644 -70.7625 223° Southwest 443 510 35,000  Level Miami Center
Wed 02:50:43 AM 21.7719 -70.8472 220° Southwest 443 510 35,000 -50 Level Miami Center
Wed 02:51:43 AM 21.6772 -70.9294 219° Southwest 443 510 34,900 -706 Descending Miami Center
Wed 02:52:42 AM 21.5711 -70.9967 211° Southwest 448 516 33,600 -1,815 Descending Miami Center
Wed 02:53:42 AM 21.4747 -71.0342 200° South 443 510 31,300 -9,378 Descending Miami Center
Wed 02:54:41 AM 21.3339 -71.0603 190° South 464 534 15,000 -1,918 Descending Miami Center
Wed 02:55:44 AM 21.2106 -71.0544 177° South 450 518 27,400 5,603 Climbing Miami Center
Wed 02:56:42 AM 21.0947 -71.0217 165° South 430 495 26,300 -1,008 Descending Miami Center
Wed 02:57:43 AM 20.9808 -70.9867 164° South 430 495 25,400 -942 Descending Miami Center
Wed 02:58:43 AM 20.8644 -70.9472 162° South 430 495 24,400 -992 Descending Miami Center
Wed 02:59:44 AM 20.7528 -70.9144 165° South 435 501 23,400 -958 Descending Miami Center
Wed 03:00:42 AM 20.6392 -70.8839 166° South 425 489 22,500 -958 Descending Miami Center
Wed 03:01:43 AM 20.5294 -70.8511 164° South 419 482 21,500 -1,261 Descending Miami Center
Wed 03:02:41 AM 20.4219 -70.8206 165° South 414 476 20,000 -1,552 Descending Miami Center
Wed 03:04:00 AM 20.2652 -70.7352 161° South  Level FlightAware Approximate
Wed 03:11:00 AM 19.4000 -70.6000 North  Level FlightAware Approximate
Wed 03:12:00 AM 19.4061 -70.6047 North  Level Estimated
Wed 03:13:00 AM 19.4061 -70.6047 North  Level Estimated
Wed 03:14:00 AM 19.4061 -70.6047 North  Level Estimated
Wed 03:15:00 AM 19.4061 -70.6047 North  Level Estimated
Wed 03:16:00 AM 19.4061 -70.6047 North  Level Estimated
Wed 03:17:00 AM 19.4061 -70.6047 North  Level Estimated
Wed 03:18:00 AM 19.4061 -70.6047 North  Level Estimated
Wed 03:19:00 AM 19.4061 -70.6047 North  Level Estimated
Wed 03:20:00 AM 19.4061 -70.6047 North  Level Estimated
Wed 03:21:00 AM 19.4061 -70.6047 North  Level Estimated
Wed 03:22:00 AM 19.4061 -70.6047 North  Level Estimated
Wed 03:23:00 AM 19.4061 -70.6047 North  Level Estimated
Wed 03:24:00 AM 19.4061 -70.6047 North  Level Estimated
Wed 03:25:00 AM 19.4061 -70.6047 North  Level Estimated
Wed 03:26:00 AM 19.4061 -70.6047 North  Level Estimated

Login

Don't have an account? Register now (free) for customized features, flight alerts, and more!